Terminal Aerodrome Forecast
Issued by NWS

Home | Current Version | Previous Version | Graphics & Text | Print | Product List | Glossary On
Versions: 1 2 3 4 5 6 7 8 9 10 11 12 13 14 15 16
000
FTUS43 KMPX 241721
TAFRWF
TAF
KRWF 241721Z 2418/2518 18020G30KT P6SM VCSH BKN090
     FM250100 19006KT P6SM BKN070
     FM250800 30008KT P6SM BKN040
     FM251200 33009KT P6SM BKN008
     FM251600 35009KT P6SM BKN020=

USA.gov is the U.S. government's official web portal to all federal, state and local government web resources and services.